createdAt,value
2019-04-25T00:01:33.436Z,99.90
2019-04-25T00:04:02.856Z,99.90
2019-04-25T00:06:32.644Z,99.90
2019-04-25T00:09:02.132Z,99.90
2019-04-25T00:11:31.452Z,99.90
2019-04-25T00:14:01.583Z,99.90
2019-04-25T00:16:32.728Z,99.90
2019-04-25T00:19:02.039Z,99.90
2019-04-25T00:21:44.451Z,99.90
2019-04-25T00:24:23.798Z,99.90
2019-04-25T00:26:53.558Z,99.90
2019-04-25T00:29:22.985Z,99.90
2019-04-25T00:31:53.280Z,99.90
2019-04-25T00:34:23.410Z,99.90
2019-04-25T00:36:53.134Z,99.90
2019-04-25T00:39:22.603Z,99.90
2019-04-25T00:41:52.112Z,99.90
2019-04-25T00:44:21.997Z,99.90
2019-04-25T00:46:56.530Z,99.90
2019-04-25T00:49:23.640Z,99.90
2019-04-25T00:51:53.291Z,99.90
2019-04-25T00:54:22.777Z,99.90
2019-04-25T00:56:52.757Z,99.90
2019-04-25T00:59:36.347Z,99.90
2019-04-25T01:02:31.310Z,99.90
2019-04-25T01:05:02.369Z,99.90
2019-04-25T01:07:32.348Z,99.90
2019-04-25T01:10:03.907Z,99.90
2019-04-25T01:12:33.203Z,99.90
2019-04-25T01:15:03.539Z,99.90
2019-04-25T01:17:33.002Z,99.90
2019-04-25T01:20:04.084Z,99.90
2019-04-25T01:22:34.332Z,99.90
2019-04-25T01:25:04.542Z,99.90
2019-04-25T01:27:33.845Z,99.90
2019-04-25T01:30:04.010Z,99.90
2019-04-25T01:32:37.292Z,99.90
2019-04-25T01:35:26.480Z,99.90
2019-04-25T01:38:14.739Z,99.90
2019-04-25T01:41:12.178Z,99.90
2019-04-25T01:44:06.427Z,99.90
2019-04-25T01:46:37.421Z,99.90
2019-04-25T01:49:06.750Z,99.90
2019-04-25T01:51:36.038Z,99.90
2019-04-25T01:54:05.468Z,99.90
2019-04-25T01:56:34.847Z,99.90
2019-04-25T01:59:04.514Z,99.90
2019-04-25T02:01:35.586Z,99.90
2019-04-25T02:04:04.966Z,99.90
2019-04-25T02:06:34.378Z,99.90
2019-04-25T02:09:05.399Z,99.90
2019-04-25T02:11:54.692Z,99.90
2019-04-25T02:14:24.865Z,99.90
2019-04-25T02:16:55.968Z,99.90
2019-04-25T02:19:25.558Z,99.90
2019-04-25T02:21:55.606Z,99.90
2019-04-25T02:24:25.857Z,99.90
2019-04-25T02:26:56.028Z,99.90
2019-04-25T02:29:25.806Z,99.90
2019-04-25T02:31:59.231Z,99.90
2019-04-25T02:34:26.159Z,99.90
2019-04-25T02:36:59.446Z,99.90
2019-04-25T02:39:27.265Z,99.90
2019-04-25T02:42:00.097Z,99.90
2019-04-25T02:44:27.710Z,99.90
2019-04-25T02:47:15.950Z,99.90
2019-04-25T02:50:15.126Z,99.90
2019-04-25T02:52:55.575Z,99.90
2019-04-25T02:55:34.236Z,99.90
2019-04-25T02:57:56.511Z,99.90
2019-04-25T03:00:45.991Z,99.90
2019-04-25T03:03:00.880Z,99.90
2019-04-25T03:05:30.421Z,99.90
2019-04-25T03:08:01.266Z,99.90
2019-04-25T03:10:31.032Z,99.90
2019-04-25T03:13:01.875Z,99.90
2019-04-25T03:15:31.477Z,99.90
2019-04-25T03:18:05.684Z,99.90
2019-04-25T03:20:40.887Z,99.90
2019-04-25T03:23:20.891Z,99.90
2019-04-25T03:25:50.261Z,99.90
2019-04-25T03:28:19.697Z,99.90
2019-04-25T03:30:49.032Z,99.90
2019-04-25T03:33:19.907Z,99.90
2019-04-25T03:35:49.501Z,99.90
2019-04-25T03:38:18.865Z,99.90
2019-04-25T03:40:48.257Z,99.90
2019-04-25T03:43:17.568Z,99.90
2019-04-25T03:45:46.899Z,99.90
2019-04-25T03:48:16.197Z,99.90
2019-04-25T03:50:45.517Z,99.90
2019-04-25T03:53:14.810Z,99.90
2019-04-25T03:55:44.450Z,99.90
2019-04-25T03:58:14.666Z,99.90
2019-04-25T04:00:44.798Z,99.90
2019-04-25T04:03:15.128Z,99.90
2019-04-25T04:05:44.729Z,99.90
2019-04-25T04:08:15.701Z,99.90
2019-04-25T04:10:45.188Z,99.90
2019-04-25T04:13:15.744Z,99.90
2019-04-25T04:15:45.193Z,99.90
2019-04-25T04:18:26.828Z,99.90
2019-04-25T04:21:17.423Z,99.90
2019-04-25T04:23:58.277Z,99.90
2019-04-25T04:26:27.709Z,99.90
2019-04-25T04:28:56.997Z,99.90
2019-04-25T04:31:26.353Z,99.90
2019-04-25T04:33:55.661Z,99.90
2019-04-25T04:36:25.085Z,99.90
2019-04-25T04:38:54.461Z,99.90
2019-04-25T04:41:24.015Z,99.90
2019-04-25T04:43:54.119Z,99.90
2019-04-25T04:46:24.099Z,99.90
2019-04-25T04:48:55.266Z,99.90
2019-04-25T04:51:24.829Z,99.90
2019-04-25T04:53:54.177Z,99.90
2019-04-25T04:56:23.884Z,99.90
2019-04-25T04:58:54.590Z,99.90
2019-04-25T05:01:25.495Z,99.90
2019-04-25T05:04:05.158Z,99.90
2019-04-25T05:06:49.412Z,99.90
2019-04-25T05:09:23.806Z,99.90
2019-04-25T05:11:54.008Z,99.90
2019-04-25T05:14:23.874Z,99.90
2019-04-25T05:16:54.559Z,99.90
2019-04-25T05:19:23.986Z,99.90
2019-04-25T05:21:53.697Z,99.90
2019-04-25T05:24:26.083Z,99.90
2019-04-25T05:26:54.163Z,99.90
2019-04-25T05:29:26.492Z,99.90
2019-04-25T05:31:54.609Z,99.90
2019-04-25T05:34:25.611Z,99.90
2019-04-25T05:36:54.977Z,99.90
2019-04-25T05:39:25.154Z,99.90
2019-04-25T05:42:04.273Z,99.90
2019-04-25T05:44:34.673Z,99.90
2019-04-25T05:47:04.218Z,99.90
2019-04-25T05:49:34.225Z,99.90
2019-04-25T05:52:04.115Z,99.90
2019-04-25T05:54:34.389Z,99.90
2019-04-25T05:57:03.909Z,99.90
2019-04-25T05:59:33.823Z,99.90
2019-04-25T06:02:03.941Z,99.90
2019-04-25T06:04:33.702Z,99.90
2019-04-25T06:07:03.334Z,99.90
2019-04-25T06:09:54.708Z,99.90
2019-04-25T06:12:33.568Z,99.90
2019-04-25T06:15:03.472Z,99.90
2019-04-25T06:17:58.013Z,99.90
2019-04-25T06:20:31.783Z,99.90
2019-04-25T06:23:13.125Z,99.90
2019-04-25T06:25:43.957Z,99.90
2019-04-25T06:28:15.393Z,99.90
2019-04-25T06:30:44.718Z,99.90
2019-04-25T06:33:14.122Z,99.90
2019-04-25T06:35:44.165Z,99.90
2019-04-25T06:38:13.673Z,99.90
2019-04-25T06:40:43.732Z,99.90
2019-04-25T06:43:13.524Z,99.90
2019-04-25T06:46:03.843Z,99.90
2019-04-25T06:48:37.346Z,99.90
2019-04-25T06:51:06.748Z,99.90
2019-04-25T06:53:36.077Z,99.90
2019-04-25T06:56:05.918Z,99.90
2019-04-25T06:58:37.248Z,99.90
2019-04-25T07:01:06.577Z,99.90
2019-04-25T07:03:35.918Z,99.90
2019-04-25T07:06:05.659Z,99.90
2019-04-25T07:08:35.477Z,99.90
2019-04-25T07:11:04.826Z,99.90
2019-04-25T07:13:38.445Z,99.90
2019-04-25T07:16:05.291Z,99.90
2019-04-25T07:18:37.049Z,99.90
2019-04-25T07:21:06.681Z,99.90
2019-04-25T07:23:36.021Z,99.90
2019-04-25T07:26:24.151Z,99.90
2019-04-25T07:29:13.396Z,99.90
2019-04-25T07:31:53.963Z,99.90
2019-04-25T07:34:25.299Z,99.90
2019-04-25T07:36:55.689Z,99.90
2019-04-25T07:39:25.627Z,99.90
2019-04-25T07:41:55.208Z,99.90
2019-04-25T07:44:36.692Z,99.90
2019-04-25T07:46:55.613Z,99.90
2019-04-25T07:49:26.636Z,99.90
2019-04-25T07:51:56.244Z,99.90
2019-04-25T07:54:27.518Z,99.90
2019-04-25T07:56:56.699Z,99.90
2019-04-25T07:59:27.359Z,99.90
2019-04-25T08:01:57.121Z,99.90
2019-04-25T08:04:27.556Z,99.90
2019-04-25T08:06:57.147Z,99.90
2019-04-25T08:09:27.377Z,99.90
2019-04-25T08:11:57.776Z,99.20
2019-04-25T08:14:46.141Z,97.20
2019-04-25T08:17:16.988Z,96.40
2019-04-25T08:19:46.755Z,94.90
2019-04-25T08:22:16.313Z,95.20
2019-04-25T08:24:45.675Z,93.50
2019-04-25T08:27:14.973Z,91.40
2019-04-25T08:29:45.493Z,89.70
2019-04-25T08:32:15.392Z,84.80
2019-04-25T08:34:45.253Z,84.60
2019-04-25T08:37:19.059Z,82.50
2019-04-25T08:39:45.680Z,79.80
2019-04-25T08:42:15.093Z,77.70
2019-04-25T08:44:44.951Z,74.90
2019-04-25T08:47:14.695Z,73.10
2019-04-25T08:49:49.562Z,67.60
2019-04-25T08:52:19.045Z,66.40
2019-04-25T08:54:57.470Z,66.80
2019-04-25T08:57:45.060Z,64.20
2019-04-25T09:00:26.513Z,66.10
2019-04-25T09:02:59.697Z,61.20
2019-04-25T09:05:45.859Z,61.20
2019-04-25T09:08:14.281Z,59.20
2019-04-25T09:10:44.807Z,58.70
2019-04-25T09:13:14.359Z,59.00
2019-04-25T09:15:45.445Z,59.10
2019-04-25T09:18:14.845Z,58.70
2019-04-25T09:20:46.674Z,57.00
2019-04-25T09:23:16.301Z,55.40
2019-04-25T09:25:46.203Z,54.20
2019-04-25T09:28:15.666Z,49.80
2019-04-25T09:30:45.851Z,50.60
2019-04-25T09:33:15.554Z,51.60
2019-04-25T09:35:45.971Z,52.00
2019-04-25T09:38:15.616Z,52.70
2019-04-25T09:40:45.670Z,51.70
2019-04-25T09:43:16.123Z,49.40
2019-04-25T09:45:54.993Z,49.60
2019-04-25T09:48:36.331Z,49.80
2019-04-25T09:51:28.293Z,51.50
2019-04-25T09:54:15.225Z,51.10
2019-04-25T09:56:47.252Z,50.90
2019-04-25T09:59:27.300Z,50.90
2019-04-25T10:01:51.314Z,50.50
2019-04-25T10:04:22.977Z,49.00
2019-04-25T10:06:53.459Z,47.60
2019-04-25T10:09:23.797Z,47.40
2019-04-25T10:11:54.713Z,46.40
2019-04-25T10:14:55.120Z,46.50
2019-04-25T10:17:24.532Z,47.70
2019-04-25T10:19:53.945Z,47.30
2019-04-25T10:22:23.744Z,48.00
2019-04-25T10:25:00.252Z,47.10
2019-04-25T10:27:24.389Z,47.20
2019-04-25T10:29:57.073Z,49.10
2019-04-25T10:32:24.793Z,48.10
2019-04-25T10:34:54.255Z,47.40
2019-04-25T10:37:23.608Z,48.80
2019-04-25T10:39:55.265Z,48.20
2019-04-25T10:42:24.166Z,47.40
2019-04-25T10:44:56.275Z,47.90
2019-04-25T10:47:24.734Z,45.70
2019-04-25T10:49:55.464Z,46.30
2019-04-25T10:52:24.927Z,46.00
2019-04-25T10:54:54.378Z,46.30
2019-04-25T10:57:24.910Z,45.80
2019-04-25T11:00:05.961Z,44.60
2019-04-25T11:02:26.089Z,44.50
2019-04-25T11:05:00.973Z,46.10
2019-04-25T11:07:30.389Z,46.50
2019-04-25T11:09:59.698Z,45.70
2019-04-25T11:12:29.085Z,45.90
2019-04-25T11:14:58.420Z,45.70
2019-04-25T11:17:27.756Z,45.10
2019-04-25T11:19:57.147Z,45.00
2019-04-25T11:22:26.557Z,45.60
2019-04-25T11:24:55.913Z,44.70
2019-04-25T11:27:25.657Z,44.70
2019-04-25T11:30:08.574Z,44.80
2019-04-25T11:32:28.131Z,44.40
2019-04-25T11:34:57.435Z,43.90
2019-04-25T11:37:29.347Z,42.70
2019-04-25T11:40:04.725Z,42.80
2019-04-25T11:42:34.104Z,42.10
2019-04-25T11:45:06.025Z,41.60
2019-04-25T11:47:35.761Z,40.50
2019-04-25T11:50:06.013Z,41.70
2019-04-25T11:52:35.346Z,41.20
2019-04-25T11:55:04.893Z,42.20
2019-04-25T11:57:34.319Z,39.60
2019-04-25T12:00:04.219Z,41.00
2019-04-25T12:02:34.365Z,40.90
2019-04-25T12:05:04.348Z,39.20
2019-04-25T12:07:34.250Z,40.20
2019-04-25T12:10:05.788Z,39.90
2019-04-25T12:12:37.168Z,42.20
2019-04-25T12:15:06.437Z,39.10
2019-04-25T12:17:35.814Z,38.60
2019-04-25T12:20:05.863Z,38.70
2019-04-25T12:22:35.219Z,39.90
2019-04-25T12:25:04.812Z,40.10
2019-04-25T12:27:34.251Z,39.50
2019-04-25T12:30:05.431Z,39.10
2019-04-25T12:32:35.276Z,38.70
2019-04-25T12:35:06.167Z,39.60
2019-04-25T12:37:35.791Z,38.90
2019-04-25T12:40:08.877Z,38.10
2019-04-25T12:42:38.194Z,39.60
2019-04-25T12:45:26.662Z,37.90
2019-04-25T12:47:57.999Z,37.60
2019-04-25T12:50:27.191Z,38.50
2019-04-25T12:52:56.571Z,38.10
2019-04-25T12:55:25.925Z,40.30
2019-04-25T12:57:56.485Z,38.40
2019-04-25T13:00:26.813Z,37.90
2019-04-25T13:02:56.630Z,38.60
2019-04-25T13:05:26.233Z,37.90
2019-04-25T13:07:58.390Z,38.00
2019-04-25T13:10:26.695Z,38.90
2019-04-25T13:12:56.983Z,37.60
2019-04-25T13:15:27.064Z,37.60
2019-04-25T13:17:57.009Z,38.80
2019-04-25T13:20:26.394Z,37.50
2019-04-25T13:22:55.870Z,37.00
2019-04-25T13:25:25.509Z,38.10
2019-04-25T13:28:19.969Z,38.70
2019-04-25T13:31:12.412Z,39.20
2019-04-25T13:33:58.865Z,40.10
2019-04-25T13:36:28.327Z,38.30
2019-04-25T13:38:57.655Z,37.40
2019-04-25T13:41:26.986Z,37.10
2019-04-25T13:43:56.679Z,37.60
2019-04-25T13:46:27.715Z,35.90
2019-04-25T13:48:57.213Z,35.80
2019-04-25T13:51:26.915Z,36.60
2019-04-25T13:53:56.337Z,36.10
2019-04-25T13:56:26.533Z,36.70
2019-04-25T13:58:56.902Z,35.40
2019-04-25T14:01:26.267Z,35.40
2019-04-25T14:03:55.607Z,35.60
2019-04-25T14:06:24.942Z,35.70
2019-04-25T14:08:54.264Z,36.90
2019-04-25T14:11:24.132Z,36.90
2019-04-25T14:13:53.497Z,37.40
2019-04-25T14:16:43.365Z,37.00
2019-04-25T14:19:31.363Z,38.10
2019-04-25T14:22:04.301Z,37.10
2019-04-25T14:24:35.728Z,36.50
2019-04-25T14:27:05.289Z,37.00
2019-04-25T14:29:34.827Z,37.30
2019-04-25T14:32:06.337Z,36.90
2019-04-25T14:34:36.684Z,37.00
2019-04-25T14:37:06.077Z,36.70
2019-04-25T14:39:36.018Z,36.90
2019-04-25T14:42:05.728Z,35.80
2019-04-25T14:44:35.143Z,36.60
2019-04-25T14:47:04.542Z,37.20
2019-04-25T14:49:33.912Z,36.80
2019-04-25T14:52:03.509Z,37.90
2019-04-25T14:54:51.295Z,36.10
2019-04-25T14:57:24.318Z,36.20
2019-04-25T14:59:53.881Z,36.00
2019-04-25T15:02:25.631Z,36.50
2019-04-25T15:04:55.265Z,36.50
2019-04-25T15:07:24.677Z,36.20
2019-04-25T15:09:54.053Z,34.70
2019-04-25T15:12:23.683Z,35.80
2019-04-25T15:14:53.937Z,36.00
2019-04-25T15:17:23.751Z,36.40
2019-04-25T15:19:53.331Z,37.40
2019-04-25T15:22:23.187Z,37.30
2019-04-25T15:24:53.861Z,36.80
2019-04-25T15:27:24.979Z,37.00
2019-04-25T15:29:54.245Z,36.80
2019-04-25T15:32:27.513Z,36.60
2019-04-25T15:34:57.886Z,36.20
2019-04-25T15:37:33.019Z,38.10
2019-04-25T15:40:10.323Z,37.40
2019-04-25T15:43:07.647Z,37.50
2019-04-25T15:45:55.947Z,36.60
2019-04-25T15:48:26.392Z,37.90
2019-04-25T15:50:56.378Z,37.40
2019-04-25T15:53:26.009Z,38.00
2019-04-25T15:55:55.407Z,37.20
2019-04-25T15:58:25.301Z,37.80
2019-04-25T16:00:55.742Z,37.70
2019-04-25T16:03:25.166Z,37.90
2019-04-25T16:05:54.521Z,38.70
2019-04-25T16:08:23.826Z,37.90
2019-04-25T16:10:53.183Z,38.20
2019-04-25T16:13:22.611Z,39.00
2019-04-25T16:15:51.957Z,39.00
2019-04-25T16:18:21.295Z,38.10
2019-04-25T16:20:50.689Z,38.30
2019-04-25T16:23:20.117Z,38.60
2019-04-25T16:25:49.448Z,38.60
2019-04-25T16:28:18.855Z,38.60
2019-04-25T16:30:48.335Z,39.90
2019-04-25T16:33:17.779Z,39.80
2019-04-25T16:35:47.211Z,39.80
2019-04-25T16:38:16.908Z,39.60
2019-04-25T16:40:46.354Z,39.80
2019-04-25T16:43:19.663Z,40.30
2019-04-25T16:45:49.170Z,40.00
2019-04-25T16:48:18.546Z,39.70
2019-04-25T16:50:47.899Z,39.90
2019-04-25T16:53:17.347Z,40.70
2019-04-25T16:55:46.734Z,41.80
2019-04-25T16:58:16.156Z,43.00
2019-04-25T17:00:53.653Z,44.10
2019-04-25T17:03:24.129Z,44.10
2019-04-25T17:05:53.491Z,44.30
2019-04-25T17:08:23.348Z,44.70
2019-04-25T17:10:52.758Z,44.70
2019-04-25T17:13:22.257Z,45.20
2019-04-25T17:16:13.795Z,45.40
2019-04-25T17:18:56.223Z,45.30
2019-04-25T17:21:25.637Z,45.70
2019-04-25T17:23:55.113Z,45.90
2019-04-25T17:26:25.173Z,45.80
2019-04-25T17:28:56.231Z,45.70
2019-04-25T17:31:32.649Z,46.10
2019-04-25T17:34:09.278Z,45.70
2019-04-25T17:36:50.990Z,46.10
2019-04-25T17:39:33.436Z,45.90
2019-04-25T17:42:06.719Z,45.50
2019-04-25T17:44:36.371Z,45.70
2019-04-25T17:47:06.759Z,45.90
2019-04-25T17:49:36.823Z,46.10
2019-04-25T17:52:06.333Z,45.90
2019-04-25T17:54:36.743Z,46.10
2019-04-25T17:57:06.800Z,46.20
2019-04-25T17:59:36.894Z,46.30
2019-04-25T18:02:06.317Z,46.40
2019-04-25T18:04:35.713Z,46.70
2019-04-25T18:07:06.613Z,47.00
2019-04-25T18:09:36.793Z,46.80
2019-04-25T18:12:06.419Z,47.40
2019-04-25T18:14:36.382Z,47.30
2019-04-25T18:17:06.173Z,47.40
2019-04-25T18:19:52.503Z,47.60
2019-04-25T18:22:59.090Z,47.60
2019-04-25T18:25:50.873Z,48.10
2019-04-25T18:28:25.355Z,48.30
2019-04-25T18:30:54.979Z,48.60
2019-04-25T18:33:28.721Z,48.90
2019-04-25T18:36:24.011Z,49.00
2019-04-25T18:39:17.978Z,49.00
2019-04-25T18:41:58.543Z,49.60
2019-04-25T18:44:27.965Z,49.80
2019-04-25T18:46:57.395Z,49.90
2019-04-25T18:49:26.809Z,50.40
2019-04-25T18:51:58.268Z,50.70
2019-04-25T18:54:45.198Z,50.60
2019-04-25T18:57:52.014Z,50.80
2019-04-25T19:00:43.687Z,51.30
2019-04-25T19:03:38.291Z,51.00
2019-04-25T19:06:11.346Z,51.10
2019-04-25T19:08:40.879Z,51.70
2019-04-25T19:11:10.423Z,51.60
2019-04-25T19:13:39.849Z,51.70
2019-04-25T19:16:09.292Z,52.40
2019-04-25T19:18:38.836Z,52.50
2019-04-25T19:21:09.617Z,52.50
2019-04-25T19:23:39.394Z,52.50
2019-04-25T19:26:09.827Z,52.60
2019-04-25T19:28:40.079Z,52.70
2019-04-25T19:31:10.356Z,52.90
2019-04-25T19:33:40.658Z,52.80
2019-04-25T19:36:10.733Z,52.80
2019-04-25T19:38:40.662Z,53.00
2019-04-25T19:41:19.274Z,52.70
2019-04-25T19:43:55.115Z,52.80
2019-04-25T19:46:41.873Z,53.20
2019-04-25T19:49:12.524Z,53.00
2019-04-25T19:51:42.952Z,53.10
2019-04-25T19:54:12.511Z,53.10
2019-04-25T19:56:42.701Z,52.80
2019-04-25T19:59:13.080Z,52.50
2019-04-25T20:01:42.612Z,52.50
2019-04-25T20:04:31.089Z,52.50
2019-04-25T20:07:15.542Z,52.40
2019-04-25T20:10:12.738Z,52.80
2019-04-25T20:12:50.315Z,52.70
2019-04-25T20:15:18.265Z,52.70
2019-04-25T20:17:47.738Z,52.70
2019-04-25T20:20:17.633Z,52.60
2019-04-25T20:22:48.079Z,52.90
2019-04-25T20:25:17.582Z,52.50
2019-04-25T20:27:47.023Z,52.80
2019-04-25T20:30:16.496Z,52.30
2019-04-25T20:32:47.218Z,52.40
2019-04-25T20:35:16.750Z,51.90
2019-04-25T20:37:47.348Z,51.60
2019-04-25T20:40:17.042Z,51.80
2019-04-25T20:42:47.065Z,51.40
2019-04-25T20:45:17.354Z,51.50
2019-04-25T20:47:47.855Z,51.00
2019-04-25T20:50:17.483Z,51.20
2019-04-25T20:52:47.419Z,51.10
2019-04-25T20:55:17.286Z,51.20
2019-04-25T20:57:47.074Z,50.90
2019-04-25T21:00:39.964Z,51.10
2019-04-25T21:03:09.882Z,50.60
2019-04-25T21:05:39.522Z,50.50
2019-04-25T21:08:09.009Z,50.50
2019-04-25T21:10:38.475Z,50.40
2019-04-25T21:13:11.019Z,50.60
2019-04-25T21:15:58.989Z,50.10
2019-04-25T21:18:37.330Z,49.80
2019-04-25T21:21:06.711Z,49.90
2019-04-25T21:23:36.089Z,49.80
2019-04-25T21:26:05.505Z,49.80
2019-04-25T21:28:34.891Z,49.60
2019-04-25T21:31:04.523Z,49.90
2019-04-25T21:33:33.903Z,49.40
2019-04-25T21:36:03.628Z,49.50
2019-04-25T21:38:33.319Z,49.60
2019-04-25T21:41:20.289Z,49.50
2019-04-25T21:43:54.164Z,49.20
2019-04-25T21:46:23.953Z,49.50
2019-04-25T21:48:54.583Z,49.40
2019-04-25T21:51:33.275Z,49.40
2019-04-25T21:54:03.697Z,49.50
2019-04-25T21:56:33.513Z,49.70
2019-04-25T21:59:04.008Z,49.30
2019-04-25T22:01:37.231Z,48.90
2019-04-25T22:04:06.789Z,48.90
2019-04-25T22:06:36.629Z,48.80
2019-04-25T22:09:10.305Z,48.60
2019-04-25T22:11:39.653Z,48.30
2019-04-25T22:14:10.485Z,48.40
2019-04-25T22:16:40.162Z,48.20
2019-04-25T22:19:11.121Z,48.20
2019-04-25T22:21:41.493Z,47.50
2019-04-25T22:24:14.353Z,47.80
2019-04-25T22:26:41.967Z,47.90
2019-04-25T22:29:11.594Z,47.60
2019-04-25T22:31:51.430Z,47.90
2019-04-25T22:34:32.637Z,48.50
2019-04-25T22:37:02.910Z,47.80
2019-04-25T22:39:32.385Z,47.70
2019-04-25T22:42:03.915Z,47.60
2019-04-25T22:44:33.537Z,47.60
2019-04-25T22:47:04.241Z,47.60
2019-04-25T22:49:33.857Z,47.20
2019-04-25T22:52:07.040Z,47.20
2019-04-25T22:54:36.507Z,47.20
2019-04-25T22:57:06.393Z,47.50
2019-04-25T22:59:36.175Z,47.40
2019-04-25T23:02:39.901Z,47.50
2019-04-25T23:05:26.394Z,48.00
2019-04-25T23:07:56.110Z,48.10
2019-04-25T23:10:25.820Z,48.00
2019-04-25T23:12:55.279Z,48.10
2019-04-25T23:15:24.701Z,48.20
2019-04-25T23:17:54.539Z,47.90
2019-04-25T23:20:23.937Z,47.90
2019-04-25T23:22:53.393Z,48.10
2019-04-25T23:25:28.005Z,47.90
2019-04-25T23:28:11.889Z,48.10
2019-04-25T23:30:59.531Z,48.30
2019-04-25T23:33:29.019Z,48.30
2019-04-25T23:35:58.698Z,48.20
2019-04-25T23:38:28.098Z,48.50
2019-04-25T23:40:57.529Z,48.30
2019-04-25T23:43:27.162Z,48.40
2019-04-25T23:45:56.561Z,48.30
2019-04-25T23:48:26.304Z,48.20
2019-04-25T23:50:55.729Z,48.50
2019-04-25T23:53:25.104Z,48.30
2019-04-25T23:55:54.516Z,48.30
2019-04-25T23:58:23.934Z,48.30
